createdAt,value
2022-09-17T00:00:39.666Z,1.10
2022-09-17T00:03:06.951Z,1.00
2022-09-17T00:05:34.453Z,0.90
2022-09-17T00:08:01.645Z,1.00
2022-09-17T00:10:28.750Z,0.80
2022-09-17T00:12:55.928Z,0.77
2022-09-17T00:15:23.076Z,1.00
2022-09-17T00:17:54.876Z,0.80
2022-09-17T00:20:21.959Z,0.90
2022-09-17T00:22:49.035Z,0.80
2022-09-17T00:25:16.579Z,0.73
2022-09-17T00:27:43.657Z,1.03
2022-09-17T00:30:11.266Z,0.60
2022-09-17T00:32:38.404Z,0.80
2022-09-17T00:35:06.043Z,0.93
2022-09-17T00:37:33.129Z,0.80
2022-09-17T00:40:00.289Z,0.70
2022-09-17T00:42:27.459Z,0.77
2022-09-17T00:44:55.914Z,0.70
2022-09-17T00:47:25.555Z,0.90
2022-09-17T00:49:55.873Z,0.60
2022-09-17T00:52:26.658Z,0.83
2022-09-17T00:54:58.739Z,0.70
2022-09-17T00:57:25.904Z,0.90
2022-09-17T00:59:52.998Z,0.70
2022-09-17T01:02:20.604Z,0.87
2022-09-17T01:04:47.873Z,0.80
2022-09-17T01:07:27.905Z,0.90
2022-09-17T01:10:10.295Z,0.70
2022-09-17T01:12:55.971Z,0.83
2022-09-17T01:15:27.921Z,0.83
2022-09-17T01:18:05.108Z,0.77
2022-09-17T01:20:55.216Z,0.70
2022-09-17T01:23:55.031Z,0.70
2022-09-17T01:26:24.926Z,0.70
2022-09-17T01:28:54.785Z,0.60
2022-09-17T01:31:22.290Z,0.93
2022-09-17T01:33:49.486Z,0.90
2022-09-17T01:36:19.490Z,0.70
2022-09-17T01:39:02.769Z,0.67
2022-09-17T01:44:04.446Z,0.70
2022-09-17T01:46:34.218Z,0.60
2022-09-17T01:49:04.216Z,0.80
2022-09-17T01:51:36.332Z,0.70
2022-09-17T01:54:06.814Z,0.60
2022-09-17T01:56:44.929Z,0.53
2022-09-17T01:59:32.290Z,0.60
2022-09-17T02:02:02.975Z,0.60
2022-09-17T02:04:33.439Z,0.70
2022-09-17T02:07:04.386Z,0.73
2022-09-17T02:09:39.171Z,0.80
2022-09-17T02:12:08.138Z,0.67
2022-09-17T02:14:38.838Z,0.60
2022-09-17T02:17:20.620Z,0.80
2022-09-17T02:19:48.376Z,0.70
2022-09-17T02:22:35.531Z,0.57
2022-09-17T02:25:07.387Z,0.80
2022-09-17T02:27:34.798Z,0.60
2022-09-17T02:30:01.912Z,0.70
2022-09-17T02:32:28.995Z,0.70
2022-09-17T02:34:56.093Z,0.70
2022-09-17T02:37:23.166Z,0.50
2022-09-17T02:39:50.341Z,0.50
2022-09-17T02:42:22.481Z,0.70
2022-09-17T02:44:55.395Z,0.53
2022-09-17T02:47:28.331Z,0.70
2022-09-17T02:49:58.264Z,0.50
2022-09-17T02:52:25.335Z,0.73
2022-09-17T02:54:57.770Z,0.60
2022-09-17T02:57:29.118Z,0.60
2022-09-17T03:00:08.426Z,0.57
2022-09-17T03:02:40.757Z,0.40
2022-09-17T03:05:08.871Z,0.53
2022-09-17T03:07:36.108Z,0.70
2022-09-17T03:10:03.197Z,0.57
2022-09-17T03:12:30.351Z,0.70
2022-09-17T03:14:57.555Z,0.67
2022-09-17T03:17:24.666Z,0.60
2022-09-17T03:19:51.747Z,0.83
2022-09-17T03:22:18.897Z,0.60
2022-09-17T03:24:45.981Z,0.40
2022-09-17T03:27:13.119Z,0.90
2022-09-17T03:29:40.423Z,0.70
2022-09-17T03:32:08.547Z,0.60
2022-09-17T03:34:35.613Z,0.50
2022-09-17T03:37:02.782Z,0.60
2022-09-17T03:39:30.255Z,0.60
2022-09-17T03:41:57.379Z,0.73
2022-09-17T03:44:24.532Z,0.73
2022-09-17T03:46:51.919Z,0.47
2022-09-17T03:49:19.160Z,0.63
2022-09-17T03:51:46.285Z,0.80
2022-09-17T03:54:13.363Z,0.60
2022-09-17T03:56:40.478Z,0.90
2022-09-17T03:59:07.758Z,0.87
2022-09-17T04:01:35.249Z,0.70
2022-09-17T04:04:02.743Z,0.90
2022-09-17T04:06:29.828Z,0.90
2022-09-17T04:08:56.974Z,0.80
2022-09-17T04:11:24.371Z,0.80
2022-09-17T04:13:51.493Z,0.63
2022-09-17T04:16:18.687Z,0.73
2022-09-17T04:18:45.788Z,0.60
2022-09-17T04:21:12.861Z,0.73
2022-09-17T04:23:40.006Z,0.80
2022-09-17T04:26:07.143Z,0.53
2022-09-17T04:28:34.241Z,1.13
2022-09-17T04:31:01.443Z,0.60
2022-09-17T04:33:28.613Z,0.70
2022-09-17T04:35:55.700Z,0.70
2022-09-17T04:38:22.937Z,1.13
2022-09-17T04:40:51.511Z,0.80
2022-09-17T04:43:18.636Z,0.70
2022-09-17T04:45:46.438Z,0.67
2022-09-17T04:48:13.636Z,1.00
2022-09-17T04:50:40.770Z,0.90
2022-09-17T04:53:07.883Z,0.90
2022-09-17T04:55:35.006Z,0.87
2022-09-17T04:58:02.685Z,1.00
2022-09-17T05:00:29.817Z,0.70
2022-09-17T05:02:56.999Z,0.77
2022-09-17T05:05:24.491Z,0.90
2022-09-17T05:07:51.611Z,0.87
2022-09-17T05:10:19.743Z,0.90
2022-09-17T05:12:53.954Z,0.67
2022-09-17T05:15:21.429Z,1.00
2022-09-17T05:17:48.935Z,1.00
2022-09-17T05:20:16.555Z,0.83
2022-09-17T05:22:52.951Z,1.00
2022-09-17T05:25:23.996Z,0.80
2022-09-17T05:27:52.215Z,0.87
2022-09-17T05:30:19.312Z,1.00
2022-09-17T05:32:47.137Z,0.97
2022-09-17T05:35:14.278Z,0.77
2022-09-17T05:37:41.458Z,1.10
2022-09-17T05:40:09.043Z,0.87
2022-09-17T05:42:36.521Z,0.83
2022-09-17T05:45:04.005Z,1.00
2022-09-17T05:47:31.150Z,1.00
2022-09-17T05:49:58.420Z,0.97
2022-09-17T05:52:28.119Z,0.80
2022-09-17T05:54:55.309Z,1.10
2022-09-17T05:57:22.440Z,1.10
2022-09-17T05:59:49.581Z,0.83
2022-09-17T06:02:16.702Z,0.90
2022-09-17T06:04:43.808Z,0.90
2022-09-17T06:07:10.885Z,0.80
2022-09-17T06:09:38.538Z,0.80
2022-09-17T06:12:05.839Z,0.80
2022-09-17T06:14:33.253Z,0.97
2022-09-17T06:17:00.402Z,1.00
2022-09-17T06:19:28.380Z,0.83
2022-09-17T06:21:55.906Z,0.80
2022-09-17T06:24:23.015Z,0.83
2022-09-17T06:26:50.087Z,0.90
2022-09-17T06:29:17.213Z,0.80
2022-09-17T06:31:44.866Z,0.70
2022-09-17T06:34:12.487Z,0.80
2022-09-17T06:36:39.633Z,0.80
2022-09-17T06:39:07.267Z,0.60
2022-09-17T06:41:34.561Z,0.70
2022-09-17T06:44:02.195Z,0.60
2022-09-17T06:46:29.338Z,0.80
2022-09-17T06:48:56.633Z,0.60
2022-09-17T06:51:23.768Z,0.60
2022-09-17T06:53:50.856Z,0.57
2022-09-17T06:56:18.203Z,0.40
2022-09-17T06:58:45.415Z,0.60
2022-09-17T07:01:13.447Z,0.40
2022-09-17T07:03:42.957Z,0.30
2022-09-17T07:06:10.839Z,0.40
2022-09-17T07:08:38.301Z,0.40
2022-09-17T07:11:05.503Z,0.40
2022-09-17T07:13:32.629Z,0.40
2022-09-17T07:16:01.969Z,0.40
2022-09-17T07:18:29.437Z,0.50
2022-09-17T07:20:57.228Z,0.50
2022-09-17T07:23:25.341Z,0.80
2022-09-17T07:25:53.538Z,0.70
2022-09-17T07:28:20.957Z,0.53
2022-09-17T07:30:48.227Z,0.70
2022-09-17T07:33:16.432Z,0.80
2022-09-17T07:35:43.619Z,0.83
2022-09-17T07:38:10.706Z,1.03
2022-09-17T07:40:37.978Z,1.30
2022-09-17T07:43:07.086Z,1.20
2022-09-17T07:45:34.191Z,1.73
2022-09-17T07:48:01.311Z,1.70
2022-09-17T07:50:28.593Z,1.70
2022-09-17T07:52:55.675Z,1.50
2022-09-17T07:55:23.858Z,1.77
2022-09-17T07:57:54.130Z,2.00
2022-09-17T08:00:22.448Z,1.90
2022-09-17T08:02:55.836Z,1.80
2022-09-17T08:05:24.517Z,1.97
2022-09-17T08:07:52.154Z,2.17
2022-09-17T08:10:21.698Z,2.30
2022-09-17T08:12:55.039Z,2.53
2022-09-17T08:15:22.457Z,2.57
2022-09-17T08:17:49.917Z,2.00
2022-09-17T08:20:18.021Z,1.90
2022-09-17T08:22:49.368Z,2.27
2022-09-17T08:25:17.597Z,2.07
2022-09-17T08:27:44.689Z,2.50
2022-09-17T08:30:11.907Z,2.30
2022-09-17T08:32:39.011Z,2.00
2022-09-17T08:35:07.475Z,1.93
2022-09-17T08:37:35.133Z,2.10
2022-09-17T08:40:02.542Z,2.07
2022-09-17T08:42:42.372Z,2.00
2022-09-17T08:45:14.403Z,2.17
2022-09-17T08:47:45.204Z,2.00
2022-09-17T08:50:15.356Z,1.97
2022-09-17T08:52:54.698Z,2.13
2022-09-17T08:55:24.872Z,2.10
2022-09-17T08:57:57.820Z,1.60
2022-09-17T09:00:25.532Z,2.00
2022-09-17T09:03:05.186Z,2.33
2022-09-17T09:05:38.266Z,2.00
2022-09-17T09:08:07.719Z,2.20
2022-09-17T09:10:55.495Z,1.83
2022-09-17T09:13:23.809Z,2.50
2022-09-17T09:15:56.015Z,2.10
2022-09-17T09:18:24.772Z,1.70
2022-09-17T09:20:55.474Z,2.27
2022-09-17T09:23:33.139Z,1.77
2022-09-17T09:26:26.774Z,2.03
2022-09-17T09:29:05.988Z,1.80
2022-09-17T09:31:38.943Z,2.00
2022-09-17T09:34:06.120Z,1.90
2022-09-17T09:36:33.865Z,1.37
2022-09-17T09:39:03.594Z,1.30
2022-09-17T09:41:30.711Z,1.27
2022-09-17T09:44:04.410Z,1.13
2022-09-17T09:46:35.130Z,1.07
2022-09-17T09:49:05.476Z,1.20
2022-09-17T09:51:32.584Z,1.20
2022-09-17T09:54:31.993Z,1.10
2022-09-17T09:57:03.967Z,1.50
2022-09-17T09:59:31.108Z,1.40
2022-09-17T10:01:58.247Z,1.20
2022-09-17T10:04:27.055Z,1.30
2022-09-17T10:07:06.146Z,1.17
2022-09-17T10:09:34.461Z,0.93
2022-09-17T10:12:04.521Z,1.13
2022-09-17T10:14:33.261Z,1.20
2022-09-17T10:17:14.165Z,0.80
2022-09-17T10:19:41.828Z,1.00
2022-09-17T10:22:26.529Z,0.70
2022-09-17T10:24:54.962Z,0.87
2022-09-17T10:27:23.542Z,0.77
2022-09-17T10:29:53.072Z,0.57
2022-09-17T10:32:21.557Z,1.13
2022-09-17T10:35:04.464Z,0.70
2022-09-17T10:37:50.715Z,0.50
2022-09-17T10:40:20.952Z,0.60
2022-09-17T10:42:49.096Z,0.50
2022-09-17T10:45:26.764Z,0.70
2022-09-17T10:47:54.385Z,0.90
2022-09-17T10:50:22.862Z,0.83
2022-09-17T10:52:55.570Z,0.80
2022-09-17T10:55:26.387Z,0.83
2022-09-17T10:58:08.463Z,3.30
2022-09-17T11:00:55.973Z,0.70
2022-09-17T11:03:41.923Z,0.83
2022-09-17T11:06:28.012Z,1.10
2022-09-17T11:09:02.916Z,0.97
2022-09-17T11:11:48.904Z,0.83
2022-09-17T11:14:19.066Z,0.60
2022-09-17T11:16:55.363Z,0.70
2022-09-17T11:19:25.515Z,0.60
2022-09-17T11:22:02.347Z,0.70
2022-09-17T11:24:52.479Z,0.80
2022-09-17T11:27:19.723Z,0.70
2022-09-17T11:29:46.815Z,0.70
2022-09-17T11:32:32.383Z,0.67
2022-09-17T11:35:06.269Z,0.70
2022-09-17T11:37:36.289Z,0.60
2022-09-17T11:40:09.622Z,0.97
2022-09-17T11:42:43.390Z,0.90
2022-09-17T11:45:28.195Z,0.60
2022-09-17T11:47:58.991Z,0.70
2022-09-17T11:50:31.297Z,0.50
2022-09-17T11:53:01.216Z,0.90
2022-09-17T11:55:38.698Z,0.70
2022-09-17T11:58:11.308Z,0.87
2022-09-17T12:00:42.890Z,0.60
2022-09-17T12:03:14.828Z,0.90
2022-09-17T12:05:41.915Z,0.57
2022-09-17T12:08:27.862Z,0.60
2022-09-17T12:10:54.938Z,0.60
2022-09-17T12:13:34.153Z,0.60
2022-09-17T12:16:13.324Z,0.90
2022-09-17T12:19:00.762Z,0.63
2022-09-17T12:21:31.297Z,0.93
2022-09-17T12:24:00.657Z,1.00
2022-09-17T12:26:33.760Z,1.37
2022-09-17T12:29:04.769Z,1.17
2022-09-17T12:31:38.112Z,1.27
2022-09-17T12:34:25.462Z,0.93
2022-09-17T12:37:08.897Z,1.10
2022-09-17T12:39:41.762Z,0.83
2022-09-17T12:42:14.642Z,0.90
2022-09-17T12:44:44.968Z,1.00
2022-09-17T12:47:18.265Z,1.20
2022-09-17T12:49:57.766Z,0.90
2022-09-17T12:52:40.263Z,1.03
2022-09-17T12:55:07.389Z,1.00
2022-09-17T12:57:46.741Z,1.20
2022-09-17T13:00:14.804Z,1.03
2022-09-17T13:02:48.083Z,1.03
2022-09-17T13:05:27.061Z,1.03
2022-09-17T13:08:12.743Z,1.20
2022-09-17T13:10:58.740Z,1.10
2022-09-17T13:13:34.936Z,0.90
2022-09-17T13:16:28.158Z,1.30
2022-09-17T13:19:16.445Z,0.80
2022-09-17T13:21:55.588Z,1.00
2022-09-17T13:24:25.177Z,0.80
2022-09-17T13:26:53.956Z,0.90
2022-09-17T13:29:39.538Z,0.80
2022-09-17T13:32:06.688Z,0.57
2022-09-17T13:34:36.035Z,0.60
2022-09-17T13:37:04.266Z,1.30
2022-09-17T13:39:40.512Z,1.20
2022-09-17T13:42:09.571Z,0.93
2022-09-17T13:44:38.454Z,0.80
2022-09-17T13:47:20.567Z,0.90
2022-09-17T13:49:49.759Z,0.80
2022-09-17T13:52:29.687Z,0.73
2022-09-17T13:54:56.890Z,0.40
2022-09-17T13:57:24.256Z,0.50
2022-09-17T13:59:57.241Z,0.60
2022-09-17T14:02:30.961Z,0.87
2022-09-17T14:05:17.954Z,0.50
2022-09-17T14:07:49.999Z,0.43
2022-09-17T14:10:17.072Z,0.50
2022-09-17T14:12:55.234Z,0.70
2022-09-17T14:15:39.431Z,0.63
2022-09-17T14:18:25.238Z,0.83
2022-09-17T14:20:53.512Z,1.10
2022-09-17T14:23:20.680Z,1.23
2022-09-17T14:25:52.019Z,0.80
2022-09-17T14:28:26.755Z,0.60
2022-09-17T14:30:54.205Z,0.63
2022-09-17T14:33:26.235Z,0.90
2022-09-17T14:35:57.506Z,0.90
2022-09-17T14:38:27.452Z,0.70
2022-09-17T14:40:54.524Z,2.70
2022-09-17T14:43:40.600Z,1.43
2022-09-17T14:46:10.508Z,0.60
2022-09-17T14:48:37.670Z,0.93
2022-09-17T14:51:20.027Z,1.00
2022-09-17T14:53:48.095Z,0.53
2022-09-17T14:56:20.224Z,0.67
2022-09-17T14:58:49.464Z,0.93
2022-09-17T15:01:24.117Z,0.90
2022-09-17T15:03:51.863Z,1.10
2022-09-17T15:06:22.807Z,1.00
2022-09-17T15:08:50.191Z,0.83
2022-09-17T15:11:17.596Z,1.00
2022-09-17T15:14:06.434Z,1.13
2022-09-17T15:16:34.847Z,1.00
2022-09-17T15:19:03.564Z,1.10
2022-09-17T15:21:44.659Z,0.60
2022-09-17T15:24:36.819Z,0.97
2022-09-17T15:27:06.573Z,0.90
2022-09-17T15:29:35.060Z,0.90
2022-09-17T15:32:04.575Z,0.70
2022-09-17T15:34:31.645Z,0.90
2022-09-17T15:37:07.724Z,1.10
2022-09-17T15:39:41.862Z,1.00
2022-09-17T15:42:18.792Z,0.93
2022-09-17T15:44:45.878Z,1.03
2022-09-17T15:47:31.685Z,0.97
2022-09-17T15:50:13.639Z,1.33
2022-09-17T15:52:40.978Z,1.50
2022-09-17T15:55:29.316Z,1.20
2022-09-17T15:57:57.629Z,0.90
2022-09-17T16:00:25.492Z,0.93
2022-09-17T16:02:52.932Z,0.70
2022-09-17T16:05:27.595Z,0.73
2022-09-17T16:07:54.745Z,0.90
2022-09-17T16:10:21.851Z,0.73
2022-09-17T16:12:50.399Z,0.87
2022-09-17T16:15:18.533Z,0.77
2022-09-17T16:17:49.071Z,0.80
2022-09-17T16:20:23.708Z,1.10
2022-09-17T16:22:51.790Z,0.80
2022-09-17T16:25:20.070Z,1.00
2022-09-17T16:27:52.362Z,0.93
2022-09-17T16:30:20.767Z,1.50
2022-09-17T16:32:48.175Z,1.20
2022-09-17T16:35:17.377Z,1.40
2022-09-17T16:37:45.069Z,1.17
2022-09-17T16:40:13.410Z,1.10
2022-09-17T16:42:40.646Z,1.00
2022-09-17T16:45:09.051Z,0.80
2022-09-17T16:47:40.007Z,1.07
2022-09-17T16:50:08.590Z,1.00
2022-09-17T16:52:36.482Z,0.90
2022-09-17T16:55:04.418Z,1.10
2022-09-17T16:57:32.092Z,1.13
2022-09-17T16:59:59.195Z,1.00
2022-09-17T17:02:26.300Z,1.40
2022-09-17T17:04:54.276Z,1.10
2022-09-17T17:07:21.393Z,0.93
2022-09-17T17:09:48.521Z,1.00
2022-09-17T17:12:15.621Z,1.17
2022-09-17T17:14:44.438Z,1.30
2022-09-17T17:17:11.513Z,1.33
2022-09-17T17:19:38.927Z,1.30
2022-09-17T17:22:06.835Z,1.30
2022-09-17T17:24:33.924Z,1.90
2022-09-17T17:27:01.672Z,1.50
2022-09-17T17:29:28.777Z,1.37
2022-09-17T17:31:55.929Z,1.10
2022-09-17T17:34:23.011Z,1.40
2022-09-17T17:36:50.575Z,1.30
2022-09-17T17:39:17.705Z,1.60
2022-09-17T17:41:48.439Z,2.10
2022-09-17T17:44:18.175Z,2.00
2022-09-17T17:46:45.328Z,1.70
2022-09-17T17:49:12.509Z,2.20
2022-09-17T17:51:39.620Z,2.17
2022-09-17T17:54:06.876Z,1.63
2022-09-17T17:56:34.009Z,1.70
2022-09-17T17:59:01.361Z,1.70
2022-09-17T18:01:29.544Z,1.93
2022-09-17T18:04:00.858Z,1.43
2022-09-17T18:06:28.917Z,1.10
2022-09-17T18:08:56.091Z,1.10
2022-09-17T18:11:23.307Z,1.00
2022-09-17T18:13:54.763Z,0.97
2022-09-17T18:16:22.575Z,0.93
2022-09-17T18:18:49.681Z,1.10
2022-09-17T18:21:18.286Z,0.70
2022-09-17T18:23:45.757Z,1.10
2022-09-17T18:26:14.471Z,1.10
2022-09-17T18:28:41.953Z,1.40
2022-09-17T18:31:24.621Z,1.07
2022-09-17T18:33:55.644Z,0.70
2022-09-17T18:36:22.718Z,0.80
2022-09-17T18:38:52.940Z,0.53
2022-09-17T18:41:20.034Z,0.60
2022-09-17T18:43:47.131Z,0.90
2022-09-17T18:46:14.293Z,0.70
2022-09-17T18:48:41.397Z,0.80
2022-09-17T18:51:11.135Z,0.80
2022-09-17T18:53:38.762Z,0.70
2022-09-17T18:56:10.809Z,0.80
2022-09-17T18:58:37.982Z,0.97
2022-09-17T19:01:06.017Z,0.73
2022-09-17T19:03:33.304Z,0.77
2022-09-17T19:06:04.225Z,1.10
2022-09-17T19:08:31.473Z,0.70
2022-09-17T19:10:58.728Z,0.80
2022-09-17T19:13:26.467Z,0.77
2022-09-17T19:15:58.276Z,0.87
2022-09-17T19:18:25.431Z,0.70
2022-09-17T19:20:52.506Z,0.63
2022-09-17T19:23:19.591Z,0.60
2022-09-17T19:25:46.669Z,0.53
2022-09-17T19:28:14.546Z,0.70
2022-09-17T19:30:41.644Z,0.60
2022-09-17T19:33:08.720Z,0.60
2022-09-17T19:35:35.804Z,0.80
2022-09-17T19:38:03.918Z,0.70
2022-09-17T19:40:31.153Z,0.60
2022-09-17T19:42:58.347Z,0.60
2022-09-17T19:45:25.981Z,0.73
2022-09-17T19:47:56.376Z,0.57
2022-09-17T19:50:23.702Z,0.60
2022-09-17T19:52:50.856Z,0.60
2022-09-17T19:55:18.004Z,0.57
2022-09-17T19:57:45.131Z,0.47
2022-09-17T20:00:12.600Z,0.40
2022-09-17T20:02:39.796Z,0.30
2022-09-17T20:05:09.991Z,0.60
2022-09-17T20:07:37.125Z,0.60
2022-09-17T20:10:05.250Z,0.67
2022-09-17T20:12:32.400Z,0.63
2022-09-17T20:14:59.509Z,0.60
2022-09-17T20:17:26.670Z,0.90
2022-09-17T20:19:53.787Z,0.87
2022-09-17T20:22:20.902Z,0.60
2022-09-17T20:24:51.023Z,0.70
2022-09-17T20:27:18.361Z,0.70
2022-09-17T20:29:45.437Z,0.50
2022-09-17T20:32:12.530Z,0.63
2022-09-17T20:34:40.901Z,0.50
2022-09-17T20:37:13.417Z,0.80
2022-09-17T20:39:41.055Z,0.57
2022-09-17T20:42:08.179Z,0.40
2022-09-17T20:44:35.267Z,0.70
2022-09-17T20:47:02.416Z,0.50
2022-09-17T20:49:30.510Z,0.70
2022-09-17T20:51:57.615Z,0.40
2022-09-17T20:54:24.776Z,0.43
2022-09-17T20:56:51.924Z,0.30
2022-09-17T20:59:19.369Z,0.33
2022-09-17T21:01:49.456Z,0.50
2022-09-17T21:04:21.253Z,0.30
2022-09-17T21:06:51.800Z,0.30
2022-09-17T21:09:18.920Z,0.30
2022-09-17T21:11:47.032Z,0.30
2022-09-17T21:14:15.794Z,0.30
2022-09-17T21:16:43.432Z,0.30
2022-09-17T21:19:11.795Z,0.40
2022-09-17T21:21:38.905Z,0.30
2022-09-17T21:24:07.301Z,0.30
2022-09-17T21:26:35.085Z,0.40
2022-09-17T21:29:02.512Z,0.50
2022-09-17T21:31:32.659Z,0.20
2022-09-17T21:34:01.795Z,0.20
2022-09-17T21:36:30.295Z,0.30
2022-09-17T21:38:58.600Z,0.40
2022-09-17T21:41:26.179Z,0.30
2022-09-17T21:43:53.372Z,0.27
2022-09-17T21:46:20.836Z,0.37
2022-09-17T21:48:49.210Z,0.27
2022-09-17T21:51:17.949Z,0.20
2022-09-17T21:53:45.516Z,0.50
2022-09-17T21:56:13.673Z,0.33
2022-09-17T21:58:41.369Z,0.20
2022-09-17T22:01:09.729Z,0.30
2022-09-17T22:03:37.060Z,0.20
2022-09-17T22:06:08.649Z,0.40
2022-09-17T22:08:35.914Z,0.30
2022-09-17T22:11:10.211Z,0.33
2022-09-17T22:13:37.673Z,0.20
2022-09-17T22:16:06.098Z,0.30
2022-09-17T22:18:34.084Z,0.33
2022-09-17T22:21:01.431Z,0.30
2022-09-17T22:23:28.536Z,0.50
2022-09-17T22:26:02.508Z,0.40
2022-09-17T22:28:29.670Z,0.30
2022-09-17T22:30:56.832Z,0.40
2022-09-17T22:33:24.001Z,0.40
2022-09-17T22:35:51.083Z,0.40
2022-09-17T22:38:18.197Z,0.30
2022-09-17T22:40:45.267Z,0.40
2022-09-17T22:43:12.370Z,0.50
2022-09-17T22:45:39.515Z,0.40
2022-09-17T22:48:06.674Z,0.30
2022-09-17T22:50:33.760Z,0.50
2022-09-17T22:53:00.848Z,0.63
2022-09-17T22:55:27.964Z,0.50
2022-09-17T22:57:55.137Z,0.70
2022-09-17T23:00:22.274Z,0.40
2022-09-17T23:02:49.435Z,0.57
2022-09-17T23:05:16.668Z,0.60
2022-09-17T23:07:43.774Z,0.33
2022-09-17T23:10:10.853Z,0.43
2022-09-17T23:12:37.944Z,0.47
2022-09-17T23:15:05.619Z,0.40
2022-09-17T23:17:32.738Z,0.53
2022-09-17T23:20:00.012Z,0.40
2022-09-17T23:22:27.627Z,0.60
2022-09-17T23:24:54.676Z,0.47
2022-09-17T23:27:21.751Z,0.30
2022-09-17T23:29:48.837Z,0.43
2022-09-17T23:32:15.916Z,0.50
2022-09-17T23:34:43.081Z,0.50
2022-09-17T23:37:10.190Z,0.40
2022-09-17T23:39:37.558Z,0.50
2022-09-17T23:42:04.798Z,0.50
2022-09-17T23:44:31.899Z,0.30
2022-09-17T23:46:59.075Z,0.50
2022-09-17T23:49:26.158Z,0.40
2022-09-17T23:51:53.286Z,0.57
2022-09-17T23:54:20.360Z,0.60
2022-09-17T23:56:47.463Z,0.50
2022-09-17T23:59:14.639Z,0.60
